sensor_id;sensor_type;location;lat;lon;timestamp;P1;durP1;ratioP1;P2;durP2;ratioP2
18140;SDS011;9196;49.194;12.526;2023-07-13T00:01:29;11.13;;;5.70;;
18140;SDS011;9196;49.194;12.526;2023-07-13T00:03:57;6.57;;;4.70;;
18140;SDS011;9196;49.194;12.526;2023-07-13T00:06:24;13.40;;;3.97;;
18140;SDS011;9196;49.194;12.526;2023-07-13T00:08:55;4.70;;;4.30;;
18140;SDS011;9196;49.194;12.526;2023-07-13T00:11:23;5.10;;;4.63;;
18140;SDS011;9196;49.194;12.526;2023-07-13T00:13:50;8.37;;;4.40;;
18140;SDS011;9196;49.194;12.526;2023-07-13T00:16:17;5.30;;;4.37;;
18140;SDS011;9196;49.194;12.526;2023-07-13T00:18:44;8.37;;;4.60;;
18140;SDS011;9196;49.194;12.526;2023-07-13T00:21:12;4.13;;;3.83;;
18140;SDS011;9196;49.194;12.526;2023-07-13T00:23:40;7.70;;;4.77;;
18140;SDS011;9196;49.194;12.526;2023-07-13T00:26:08;6.80;;;5.20;;
18140;SDS011;9196;49.194;12.526;2023-07-13T00:28:38;7.70;;;4.50;;
18140;SDS011;9196;49.194;12.526;2023-07-13T00:31:06;4.93;;;4.53;;
18140;SDS011;9196;49.194;12.526;2023-07-13T00:33:34;6.17;;;4.00;;
18140;SDS011;9196;49.194;12.526;2023-07-13T00:36:00;6.77;;;4.03;;
18140;SDS011;9196;49.194;12.526;2023-07-13T00:38:27;4.93;;;4.50;;
18140;SDS011;9196;49.194;12.526;2023-07-13T00:40:54;6.13;;;4.33;;
18140;SDS011;9196;49.194;12.526;2023-07-13T00:43:23;7.00;;;4.00;;
18140;SDS011;9196;49.194;12.526;2023-07-13T00:46:16;4.80;;;4.20;;
18140;SDS011;9196;49.194;12.526;2023-07-13T00:48:45;5.90;;;4.30;;
18140;SDS011;9196;49.194;12.526;2023-07-13T00:51:13;5.87;;;4.63;;
18140;SDS011;9196;49.194;12.526;2023-07-13T00:53:42;5.50;;;4.00;;
18140;SDS011;9196;49.194;12.526;2023-07-13T00:56:09;5.80;;;4.20;;
18140;SDS011;9196;49.194;12.526;2023-07-13T00:58:36;5.03;;;4.53;;
18140;SDS011;9196;49.194;12.526;2023-07-13T01:01:03;3.70;;;3.43;;
18140;SDS011;9196;49.194;12.526;2023-07-13T01:03:31;3.60;;;3.33;;
18140;SDS011;9196;49.194;12.526;2023-07-13T01:06:00;9.97;;;3.60;;
18140;SDS011;9196;49.194;12.526;2023-07-13T01:08:27;6.13;;;4.10;;
18140;SDS011;9196;49.194;12.526;2023-07-13T01:10:55;5.17;;;4.37;;
18140;SDS011;9196;49.194;12.526;2023-07-13T01:13:23;4.97;;;3.90;;
18140;SDS011;9196;49.194;12.526;2023-07-13T01:15:50;4.63;;;3.33;;
18140;SDS011;9196;49.194;12.526;2023-07-13T01:18:19;4.50;;;3.13;;
18140;SDS011;9196;49.194;12.526;2023-07-13T01:20:51;3.43;;;3.13;;
18140;SDS011;9196;49.194;12.526;2023-07-13T01:23:19;7.87;;;4.20;;
18140;SDS011;9196;49.194;12.526;2023-07-13T01:25:46;6.73;;;3.97;;
18140;SDS011;9196;49.194;12.526;2023-07-13T01:28:13;3.50;;;3.30;;
18140;SDS011;9196;49.194;12.526;2023-07-13T01:30:42;3.77;;;3.47;;
18140;SDS011;9196;49.194;12.526;2023-07-13T01:33:10;4.60;;;4.00;;
18140;SDS011;9196;49.194;12.526;2023-07-13T01:35:38;10.30;;;4.00;;
18140;SDS011;9196;49.194;12.526;2023-07-13T01:38:06;4.30;;;3.90;;
18140;SDS011;9196;49.194;12.526;2023-07-13T01:40:34;4.70;;;4.30;;
18140;SDS011;9196;49.194;12.526;2023-07-13T01:43:01;4.53;;;4.13;;
18140;SDS011;9196;49.194;12.526;2023-07-13T01:45:28;8.63;;;4.87;;
18140;SDS011;9196;49.194;12.526;2023-07-13T01:47:55;4.53;;;4.13;;
18140;SDS011;9196;49.194;12.526;2023-07-13T01:50:22;4.90;;;4.50;;
18140;SDS011;9196;49.194;12.526;2023-07-13T01:52:49;5.90;;;4.60;;
18140;SDS011;9196;49.194;12.526;2023-07-13T01:55:17;4.77;;;3.90;;
18140;SDS011;9196;49.194;12.526;2023-07-13T01:57:45;6.73;;;4.10;;
18140;SDS011;9196;49.194;12.526;2023-07-13T02:00:13;5.60;;;4.50;;
18140;SDS011;9196;49.194;12.526;2023-07-13T02:02:40;6.83;;;3.97;;
18140;SDS011;9196;49.194;12.526;2023-07-13T02:05:07;4.07;;;3.67;;
18140;SDS011;9196;49.194;12.526;2023-07-13T02:07:34;5.13;;;3.40;;
18140;SDS011;9196;49.194;12.526;2023-07-13T02:10:02;8.03;;;4.20;;
18140;SDS011;9196;49.194;12.526;2023-07-13T02:12:30;10.83;;;4.17;;
18140;SDS011;9196;49.194;12.526;2023-07-13T02:14:57;17.90;;;3.80;;
18140;SDS011;9196;49.194;12.526;2023-07-13T02:17:24;4.60;;;3.13;;
18140;SDS011;9196;49.194;12.526;2023-07-13T02:19:51;4.30;;;3.60;;
18140;SDS011;9196;49.194;12.526;2023-07-13T02:22:19;3.97;;;3.50;;
18140;SDS011;9196;49.194;12.526;2023-07-13T02:24:46;8.27;;;3.60;;
18140;SDS011;9196;49.194;12.526;2023-07-13T02:27:12;3.37;;;3.17;;
18140;SDS011;9196;49.194;12.526;2023-07-13T02:29:40;5.70;;;3.47;;
18140;SDS011;9196;49.194;12.526;2023-07-13T02:32:07;5.60;;;3.20;;
18140;SDS011;9196;49.194;12.526;2023-07-13T02:34:35;4.40;;;3.67;;
18140;SDS011;9196;49.194;12.526;2023-07-13T02:37:02;6.97;;;3.57;;
18140;SDS011;9196;49.194;12.526;2023-07-13T02:39:29;3.73;;;3.20;;
18140;SDS011;9196;49.194;12.526;2023-07-13T02:41:58;3.33;;;2.50;;
18140;SDS011;9196;49.194;12.526;2023-07-13T02:44:24;11.70;;;3.67;;
18140;SDS011;9196;49.194;12.526;2023-07-13T02:46:53;3.47;;;3.17;;
18140;SDS011;9196;49.194;12.526;2023-07-13T02:49:20;6.80;;;3.63;;
18140;SDS011;9196;49.194;12.526;2023-07-13T02:51:46;6.47;;;3.33;;
18140;SDS011;9196;49.194;12.526;2023-07-13T02:54:13;5.70;;;3.80;;
18140;SDS011;9196;49.194;12.526;2023-07-13T02:56:40;4.60;;;3.27;;
18140;SDS011;9196;49.194;12.526;2023-07-13T02:59:08;3.77;;;3.07;;
18140;SDS011;9196;49.194;12.526;2023-07-13T03:01:35;7.70;;;3.40;;
18140;SDS011;9196;49.194;12.526;2023-07-13T03:04:04;5.47;;;2.93;;
18140;SDS011;9196;49.194;12.526;2023-07-13T03:06:31;3.00;;;2.80;;
18140;SDS011;9196;49.194;12.526;2023-07-13T03:08:59;5.03;;;4.30;;
18140;SDS011;9196;49.194;12.526;2023-07-13T03:11:26;18.97;;;3.77;;
18140;SDS011;9196;49.194;12.526;2023-07-13T03:13:53;3.90;;;3.47;;
18140;SDS011;9196;49.194;12.526;2023-07-13T03:16:19;3.90;;;3.00;;
18140;SDS011;9196;49.194;12.526;2023-07-13T03:18:47;2.93;;;2.73;;
18140;SDS011;9196;49.194;12.526;2023-07-13T03:21:15;4.43;;;3.87;;
18140;SDS011;9196;49.194;12.526;2023-07-13T03:23:42;4.97;;;4.00;;
18140;SDS011;9196;49.194;12.526;2023-07-13T03:26:10;4.60;;;4.20;;
18140;SDS011;9196;49.194;12.526;2023-07-13T03:28:38;4.10;;;3.37;;
18140;SDS011;9196;49.194;12.526;2023-07-13T03:31:06;5.30;;;3.50;;
18140;SDS011;9196;49.194;12.526;2023-07-13T03:33:35;4.13;;;3.67;;
18140;SDS011;9196;49.194;12.526;2023-07-13T03:36:02;3.93;;;3.57;;
18140;SDS011;9196;49.194;12.526;2023-07-13T03:38:32;6.27;;;3.70;;
18140;SDS011;9196;49.194;12.526;2023-07-13T03:40:59;3.80;;;3.50;;
18140;SDS011;9196;49.194;12.526;2023-07-13T03:43:26;5.03;;;3.37;;
18140;SDS011;9196;49.194;12.526;2023-07-13T03:46:07;4.30;;;3.50;;
18140;SDS011;9196;49.194;12.526;2023-07-13T03:48:34;10.63;;;4.13;;
18140;SDS011;9196;49.194;12.526;2023-07-13T03:51:01;3.50;;;3.30;;
18140;SDS011;9196;49.194;12.526;2023-07-13T03:53:28;4.03;;;3.73;;
18140;SDS011;9196;49.194;12.526;2023-07-13T03:55:58;3.30;;;3.10;;
18140;SDS011;9196;49.194;12.526;2023-07-13T03:58:29;3.10;;;2.90;;
18140;SDS011;9196;49.194;12.526;2023-07-13T04:01:01;3.13;;;2.83;;
18140;SDS011;9196;49.194;12.526;2023-07-13T04:03:30;6.07;;;3.33;;
18140;SDS011;9196;49.194;12.526;2023-07-13T04:06:01;3.50;;;3.30;;
18140;SDS011;9196;49.194;12.526;2023-07-13T04:08:29;9.90;;;3.67;;
18140;SDS011;9196;49.194;12.526;2023-07-13T04:10:59;3.77;;;3.47;;
18140;SDS011;9196;49.194;12.526;2023-07-13T04:13:27;6.10;;;3.30;;
18140;SDS011;9196;49.194;12.526;2023-07-13T04:15:54;5.57;;;4.57;;
18140;SDS011;9196;49.194;12.526;2023-07-13T04:18:21;4.90;;;3.70;;
18140;SDS011;9196;49.194;12.526;2023-07-13T04:20:48;3.90;;;3.50;;
18140;SDS011;9196;49.194;12.526;2023-07-13T04:23:16;6.87;;;4.07;;
18140;SDS011;9196;49.194;12.526;2023-07-13T04:25:44;3.60;;;3.40;;
18140;SDS011;9196;49.194;12.526;2023-07-13T04:28:12;5.50;;;4.70;;
18140;SDS011;9196;49.194;12.526;2023-07-13T04:30:42;5.17;;;3.60;;
18140;SDS011;9196;49.194;12.526;2023-07-13T04:33:09;7.50;;;3.57;;
18140;SDS011;9196;49.194;12.526;2023-07-13T04:35:36;5.50;;;4.60;;
18140;SDS011;9196;49.194;12.526;2023-07-13T04:38:03;4.47;;;4.10;;
18140;SDS011;9196;49.194;12.526;2023-07-13T04:40:30;4.93;;;4.53;;
18140;SDS011;9196;49.194;12.526;2023-07-13T04:42:58;6.93;;;4.57;;
18140;SDS011;9196;49.194;12.526;2023-07-13T04:45:26;4.60;;;4.27;;
18140;SDS011;9196;49.194;12.526;2023-07-13T04:47:53;5.40;;;4.90;;
18140;SDS011;9196;49.194;12.526;2023-07-13T04:50:20;11.63;;;5.60;;
18140;SDS011;9196;49.194;12.526;2023-07-13T04:52:48;10.93;;;4.30;;
18140;SDS011;9196;49.194;12.526;2023-07-13T04:55:16;7.50;;;4.10;;
18140;SDS011;9196;49.194;12.526;2023-07-13T04:57:43;7.43;;;4.47;;
18140;SDS011;9196;49.194;12.526;2023-07-13T05:00:10;4.80;;;4.13;;
18140;SDS011;9196;49.194;12.526;2023-07-13T05:02:39;5.50;;;4.60;;
18140;SDS011;9196;49.194;12.526;2023-07-13T05:05:06;4.80;;;4.03;;
18140;SDS011;9196;49.194;12.526;2023-07-13T05:07:34;5.53;;;4.47;;
18140;SDS011;9196;49.194;12.526;2023-07-13T05:10:01;4.40;;;4.10;;
18140;SDS011;9196;49.194;12.526;2023-07-13T05:12:28;5.10;;;3.63;;
18140;SDS011;9196;49.194;12.526;2023-07-13T05:14:56;8.63;;;4.90;;
18140;SDS011;9196;49.194;12.526;2023-07-13T05:17:22;8.07;;;4.10;;
18140;SDS011;9196;49.194;12.526;2023-07-13T05:19:51;4.13;;;3.70;;
18140;SDS011;9196;49.194;12.526;2023-07-13T05:22:18;4.10;;;3.70;;
18140;SDS011;9196;49.194;12.526;2023-07-13T05:24:47;8.60;;;4.53;;
18140;SDS011;9196;49.194;12.526;2023-07-13T05:27:14;4.50;;;4.10;;
18140;SDS011;9196;49.194;12.526;2023-07-13T05:29:41;9.07;;;3.80;;
18140;SDS011;9196;49.194;12.526;2023-07-13T05:32:08;7.23;;;3.80;;
18140;SDS011;9196;49.194;12.526;2023-07-13T05:34:35;7.00;;;3.67;;
18140;SDS011;9196;49.194;12.526;2023-07-13T05:37:03;4.07;;;3.47;;
18140;SDS011;9196;49.194;12.526;2023-07-13T05:39:30;5.40;;;3.43;;
18140;SDS011;9196;49.194;12.526;2023-07-13T05:41:57;9.30;;;3.67;;
18140;SDS011;9196;49.194;12.526;2023-07-13T05:44:24;4.00;;;3.50;;
18140;SDS011;9196;49.194;12.526;2023-07-13T05:46:51;9.23;;;3.37;;
18140;SDS011;9196;49.194;12.526;2023-07-13T05:49:18;5.23;;;3.23;;
18140;SDS011;9196;49.194;12.526;2023-07-13T05:51:47;5.17;;;3.40;;
18140;SDS011;9196;49.194;12.526;2023-07-13T05:54:16;4.13;;;3.33;;
18140;SDS011;9196;49.194;12.526;2023-07-13T05:56:43;6.63;;;2.80;;
18140;SDS011;9196;49.194;12.526;2023-07-13T05:59:10;6.27;;;3.03;;
18140;SDS011;9196;49.194;12.526;2023-07-13T06:01:37;8.03;;;3.10;;
18140;SDS011;9196;49.194;12.526;2023-07-13T06:04:04;6.77;;;4.23;;
18140;SDS011;9196;49.194;12.526;2023-07-13T06:06:32;6.00;;;3.50;;
18140;SDS011;9196;49.194;12.526;2023-07-13T06:08:59;7.53;;;2.80;;
18140;SDS011;9196;49.194;12.526;2023-07-13T06:11:27;4.13;;;2.40;;
18140;SDS011;9196;49.194;12.526;2023-07-13T06:13:55;18.03;;;3.83;;
18140;SDS011;9196;49.194;12.526;2023-07-13T06:16:22;16.37;;;5.07;;
18140;SDS011;9196;49.194;12.526;2023-07-13T06:18:49;8.37;;;5.40;;
18140;SDS011;9196;49.194;12.526;2023-07-13T06:21:17;5.60;;;3.37;;
18140;SDS011;9196;49.194;12.526;2023-07-13T06:23:46;5.03;;;2.30;;
18140;SDS011;9196;49.194;12.526;2023-07-13T06:26:13;13.10;;;5.03;;
18140;SDS011;9196;49.194;12.526;2023-07-13T06:28:42;12.00;;;2.87;;
18140;SDS011;9196;49.194;12.526;2023-07-13T06:31:10;3.13;;;2.63;;
18140;SDS011;9196;49.194;12.526;2023-07-13T06:33:38;8.40;;;1.93;;
18140;SDS011;9196;49.194;12.526;2023-07-13T06:36:06;2.60;;;2.40;;
18140;SDS011;9196;49.194;12.526;2023-07-13T06:38:34;6.50;;;2.90;;
18140;SDS011;9196;49.194;12.526;2023-07-13T06:41:02;4.17;;;2.53;;
18140;SDS011;9196;49.194;12.526;2023-07-13T06:43:29;3.17;;;2.40;;
18140;SDS011;9196;49.194;12.526;2023-07-13T06:45:58;3.33;;;2.47;;
18140;SDS011;9196;49.194;12.526;2023-07-13T06:48:26;3.13;;;2.20;;
18140;SDS011;9196;49.194;12.526;2023-07-13T06:50:54;3.83;;;2.27;;
18140;SDS011;9196;49.194;12.526;2023-07-13T06:53:21;7.13;;;2.07;;
18140;SDS011;9196;49.194;12.526;2023-07-13T06:55:49;2.47;;;2.27;;
18140;SDS011;9196;49.194;12.526;2023-07-13T06:58:17;3.47;;;2.50;;
18140;SDS011;9196;49.194;12.526;2023-07-13T07:00:44;3.13;;;2.23;;
18140;SDS011;9196;49.194;12.526;2023-07-13T07:03:12;3.23;;;1.87;;
18140;SDS011;9196;49.194;12.526;2023-07-13T07:05:39;5.50;;;2.80;;
18140;SDS011;9196;49.194;12.526;2023-07-13T07:08:06;2.23;;;2.13;;
18140;SDS011;9196;49.194;12.526;2023-07-13T07:10:33;2.37;;;2.07;;
18140;SDS011;9196;49.194;12.526;2023-07-13T07:13:03;2.97;;;2.30;;
18140;SDS011;9196;49.194;12.526;2023-07-13T07:15:31;3.03;;;2.83;;
18140;SDS011;9196;49.194;12.526;2023-07-13T07:18:00;4.40;;;1.80;;
18140;SDS011;9196;49.194;12.526;2023-07-13T07:20:28;2.03;;;1.83;;
18140;SDS011;9196;49.194;12.526;2023-07-13T07:22:55;2.53;;;1.83;;
18140;SDS011;9196;49.194;12.526;2023-07-13T07:25:22;2.63;;;2.17;;
18140;SDS011;9196;49.194;12.526;2023-07-13T07:27:49;2.83;;;2.00;;
18140;SDS011;9196;49.194;12.526;2023-07-13T07:30:18;2.17;;;2.07;;
18140;SDS011;9196;49.194;12.526;2023-07-13T07:32:45;2.10;;;1.97;;
18140;SDS011;9196;49.194;12.526;2023-07-13T07:35:12;3.73;;;2.00;;
18140;SDS011;9196;49.194;12.526;2023-07-13T07:37:40;1.60;;;1.50;;
18140;SDS011;9196;49.194;12.526;2023-07-13T07:40:07;6.40;;;2.33;;
18140;SDS011;9196;49.194;12.526;2023-07-13T07:42:34;2.33;;;1.87;;
18140;SDS011;9196;49.194;12.526;2023-07-13T07:45:01;4.80;;;2.10;;
18140;SDS011;9196;49.194;12.526;2023-07-13T07:47:28;2.60;;;1.80;;
18140;SDS011;9196;49.194;12.526;2023-07-13T07:49:55;2.23;;;2.13;;
18140;SDS011;9196;49.194;12.526;2023-07-13T07:52:22;1.60;;;1.50;;
18140;SDS011;9196;49.194;12.526;2023-07-13T07:54:50;2.83;;;1.43;;
18140;SDS011;9196;49.194;12.526;2023-07-13T07:57:17;2.70;;;1.90;;
18140;SDS011;9196;49.194;12.526;2023-07-13T07:59:44;3.77;;;2.23;;
18140;SDS011;9196;49.194;12.526;2023-07-13T08:02:11;2.43;;;2.20;;
18140;SDS011;9196;49.194;12.526;2023-07-13T08:04:38;1.80;;;1.70;;
18140;SDS011;9196;49.194;12.526;2023-07-13T08:07:05;2.10;;;1.73;;
18140;SDS011;9196;49.194;12.526;2023-07-13T08:09:32;3.00;;;1.83;;
18140;SDS011;9196;49.194;12.526;2023-07-13T08:12:06;3.70;;;2.07;;
18140;SDS011;9196;49.194;12.526;2023-07-13T08:14:33;2.00;;;1.63;;
18140;SDS011;9196;49.194;12.526;2023-07-13T08:17:00;1.80;;;1.53;;
18140;SDS011;9196;49.194;12.526;2023-07-13T08:19:27;5.90;;;1.87;;
18140;SDS011;9196;49.194;12.526;2023-07-13T08:21:57;1.90;;;1.73;;
18140;SDS011;9196;49.194;12.526;2023-07-13T08:24:26;1.90;;;1.80;;
18140;SDS011;9196;49.194;12.526;2023-07-13T08:26:53;1.90;;;1.70;;
18140;SDS011;9196;49.194;12.526;2023-07-13T08:29:21;4.47;;;2.10;;
18140;SDS011;9196;49.194;12.526;2023-07-13T08:31:49;4.80;;;2.33;;
18140;SDS011;9196;49.194;12.526;2023-07-13T08:34:16;8.93;;;3.00;;
18140;SDS011;9196;49.194;12.526;2023-07-13T08:36:43;6.43;;;1.90;;
18140;SDS011;9196;49.194;12.526;2023-07-13T08:39:10;1.77;;;1.67;;
18140;SDS011;9196;49.194;12.526;2023-07-13T08:41:38;4.83;;;2.60;;
18140;SDS011;9196;49.194;12.526;2023-07-13T08:44:06;5.00;;;2.20;;
18140;SDS011;9196;49.194;12.526;2023-07-13T08:46:54;3.67;;;2.00;;
18140;SDS011;9196;49.194;12.526;2023-07-13T08:49:24;3.17;;;1.90;;
18140;SDS011;9196;49.194;12.526;2023-07-13T08:51:53;1.77;;;1.67;;
18140;SDS011;9196;49.194;12.526;2023-07-13T08:54:27;3.17;;;1.83;;
18140;SDS011;9196;49.194;12.526;2023-07-13T08:56:57;2.73;;;2.00;;
18140;SDS011;9196;49.194;12.526;2023-07-13T08:59:27;2.50;;;1.60;;
18140;SDS011;9196;49.194;12.526;2023-07-13T09:02:08;5.60;;;1.97;;
18140;SDS011;9196;49.194;12.526;2023-07-13T09:04:48;5.20;;;2.63;;
18140;SDS011;9196;49.194;12.526;2023-07-13T09:07:22;3.57;;;2.03;;
18140;SDS011;9196;49.194;12.526;2023-07-13T09:10:00;2.33;;;1.60;;
18140;SDS011;9196;49.194;12.526;2023-07-13T09:12:35;6.73;;;1.63;;
18140;SDS011;9196;49.194;12.526;2023-07-13T09:15:17;5.17;;;1.83;;
18140;SDS011;9196;49.194;12.526;2023-07-13T09:17:52;4.37;;;1.70;;
18140;SDS011;9196;49.194;12.526;2023-07-13T09:20:23;2.53;;;1.83;;
18140;SDS011;9196;49.194;12.526;2023-07-13T09:22:54;1.93;;;1.50;;
18140;SDS011;9196;49.194;12.526;2023-07-13T09:25:27;1.83;;;1.33;;
18140;SDS011;9196;49.194;12.526;2023-07-13T09:27:58;3.27;;;1.70;;
18140;SDS011;9196;49.194;12.526;2023-07-13T09:30:30;1.83;;;1.70;;
18140;SDS011;9196;49.194;12.526;2023-07-13T09:33:04;1.97;;;1.83;;
18140;SDS011;9196;49.194;12.526;2023-07-13T09:35:31;3.60;;;1.63;;
18140;SDS011;9196;49.194;12.526;2023-07-13T09:38:03;1.90;;;1.57;;
18140;SDS011;9196;49.194;12.526;2023-07-13T09:40:40;8.83;;;1.93;;
18140;SDS011;9196;49.194;12.526;2023-07-13T09:43:15;3.30;;;1.80;;
18140;SDS011;9196;49.194;12.526;2023-07-13T09:45:45;5.87;;;1.83;;
18140;SDS011;9196;49.194;12.526;2023-07-13T09:48:15;4.00;;;1.60;;
18140;SDS011;9196;49.194;12.526;2023-07-13T09:50:43;2.60;;;1.60;;
18140;SDS011;9196;49.194;12.526;2023-07-13T09:53:11;3.00;;;1.60;;
18140;SDS011;9196;49.194;12.526;2023-07-13T09:55:39;2.10;;;1.77;;
18140;SDS011;9196;49.194;12.526;2023-07-13T09:58:09;2.77;;;1.30;;
18140;SDS011;9196;49.194;12.526;2023-07-13T10:00:38;2.80;;;1.33;;
18140;SDS011;9196;49.194;12.526;2023-07-13T10:03:15;2.97;;;1.50;;
18140;SDS011;9196;49.194;12.526;2023-07-13T10:05:47;3.33;;;1.80;;
18140;SDS011;9196;49.194;12.526;2023-07-13T10:08:24;1.47;;;1.27;;
18140;SDS011;9196;49.194;12.526;2023-07-13T10:10:53;4.37;;;1.60;;
18140;SDS011;9196;49.194;12.526;2023-07-13T10:13:28;3.60;;;1.60;;
18140;SDS011;9196;49.194;12.526;2023-07-13T10:15:57;3.40;;;1.40;;
18140;SDS011;9196;49.194;12.526;2023-07-13T10:18:27;1.70;;;1.03;;
18140;SDS011;9196;49.194;12.526;2023-07-13T10:20:58;2.40;;;1.77;;
18140;SDS011;9196;49.194;12.526;2023-07-13T10:23:36;1.13;;;1.10;;
18140;SDS011;9196;49.194;12.526;2023-07-13T10:26:04;2.80;;;1.43;;
18140;SDS011;9196;49.194;12.526;2023-07-13T10:28:36;4.40;;;1.90;;
18140;SDS011;9196;49.194;12.526;2023-07-13T10:31:04;4.83;;;1.93;;
18140;SDS011;9196;49.194;12.526;2023-07-13T10:33:38;4.70;;;1.70;;
18140;SDS011;9196;49.194;12.526;2023-07-13T10:36:10;1.40;;;1.30;;
18140;SDS011;9196;49.194;12.526;2023-07-13T10:38:41;3.33;;;1.57;;
18140;SDS011;9196;49.194;12.526;2023-07-13T10:41:10;1.43;;;1.37;;
18140;SDS011;9196;49.194;12.526;2023-07-13T10:43:41;1.50;;;1.40;;
18140;SDS011;9196;49.194;12.526;2023-07-13T10:46:10;7.67;;;1.73;;
18140;SDS011;9196;49.194;12.526;2023-07-13T10:48:41;2.77;;;1.60;;
18140;SDS011;9196;49.194;12.526;2023-07-13T10:51:12;5.10;;;1.40;;
18140;SDS011;9196;49.194;12.526;2023-07-13T10:53:40;4.00;;;2.00;;
18140;SDS011;9196;49.194;12.526;2023-07-13T10:56:16;1.40;;;1.30;;
18140;SDS011;9196;49.194;12.526;2023-07-13T10:58:50;2.77;;;1.80;;
18140;SDS011;9196;49.194;12.526;2023-07-13T11:01:39;1.40;;;1.30;;
18140;SDS011;9196;49.194;12.526;2023-07-13T11:04:11;1.57;;;1.33;;
18140;SDS011;9196;49.194;12.526;2023-07-13T11:06:47;8.23;;;2.00;;
18140;SDS011;9196;49.194;12.526;2023-07-13T11:12:08;2.40;;;1.50;;
18140;SDS011;9196;49.194;12.526;2023-07-13T11:15:01;2.40;;;1.60;;
18140;SDS011;9196;49.194;12.526;2023-07-13T11:17:46;2.30;;;2.00;;
18140;SDS011;9196;49.194;12.526;2023-07-13T11:20:24;3.17;;;1.60;;
18140;SDS011;9196;49.194;12.526;2023-07-13T11:23:09;2.40;;;1.53;;
18140;SDS011;9196;49.194;12.526;2023-07-13T11:25:52;4.27;;;1.97;;
18140;SDS011;9196;49.194;12.526;2023-07-13T11:28:24;1.90;;;1.70;;
18140;SDS011;9196;49.194;12.526;2023-07-13T11:31:03;2.63;;;1.53;;
18140;SDS011;9196;49.194;12.526;2023-07-13T11:33:47;2.37;;;1.93;;
18140;SDS011;9196;49.194;12.526;2023-07-13T11:36:19;2.03;;;1.70;;
18140;SDS011;9196;49.194;12.526;2023-07-13T11:38:51;2.33;;;1.80;;
18140;SDS011;9196;49.194;12.526;2023-07-13T11:41:26;7.00;;;1.60;;
18140;SDS011;9196;49.194;12.526;2023-07-13T11:44:02;5.30;;;1.40;;
18140;SDS011;9196;49.194;12.526;2023-07-13T11:46:33;1.53;;;1.47;;
18140;SDS011;9196;49.194;12.526;2023-07-13T11:49:00;7.10;;;2.03;;
18140;SDS011;9196;49.194;12.526;2023-07-13T11:51:29;12.03;;;1.80;;
18140;SDS011;9196;49.194;12.526;2023-07-13T11:53:59;4.67;;;1.80;;
18140;SDS011;9196;49.194;12.526;2023-07-13T11:56:29;4.20;;;1.40;;
18140;SDS011;9196;49.194;12.526;2023-07-13T11:59:03;1.73;;;1.30;;
18140;SDS011;9196;49.194;12.526;2023-07-13T12:01:32;1.73;;;1.60;;
18140;SDS011;9196;49.194;12.526;2023-07-13T12:04:01;4.37;;;1.60;;
18140;SDS011;9196;49.194;12.526;2023-07-13T12:06:31;6.30;;;1.87;;
18140;SDS011;9196;49.194;12.526;2023-07-13T12:09:01;1.30;;;1.20;;
18140;SDS011;9196;49.194;12.526;2023-07-13T12:11:30;2.10;;;1.83;;
18140;SDS011;9196;49.194;12.526;2023-07-13T12:14:02;2.50;;;1.70;;
18140;SDS011;9196;49.194;12.526;2023-07-13T12:16:29;2.30;;;1.70;;
18140;SDS011;9196;49.194;12.526;2023-07-13T12:18:58;2.63;;;1.40;;
18140;SDS011;9196;49.194;12.526;2023-07-13T12:21:29;2.47;;;1.27;;
18140;SDS011;9196;49.194;12.526;2023-07-13T12:23:59;3.43;;;1.60;;
18140;SDS011;9196;49.194;12.526;2023-07-13T12:26:28;1.60;;;1.50;;
18140;SDS011;9196;49.194;12.526;2023-07-13T12:28:56;1.47;;;1.30;;
18140;SDS011;9196;49.194;12.526;2023-07-13T12:31:29;4.87;;;1.67;;
18140;SDS011;9196;49.194;12.526;2023-07-13T12:33:59;3.03;;;2.10;;
18140;SDS011;9196;49.194;12.526;2023-07-13T12:36:29;2.13;;;1.20;;
18140;SDS011;9196;49.194;12.526;2023-07-13T12:39:01;5.50;;;1.57;;
18140;SDS011;9196;49.194;12.526;2023-07-13T12:41:36;4.23;;;1.40;;
18140;SDS011;9196;49.194;12.526;2023-07-13T12:44:02;1.30;;;1.20;;
18140;SDS011;9196;49.194;12.526;2023-07-13T12:46:30;2.07;;;1.50;;
18140;SDS011;9196;49.194;12.526;2023-07-13T12:48:57;1.47;;;1.37;;
18140;SDS011;9196;49.194;12.526;2023-07-13T12:51:25;1.83;;;1.73;;
18140;SDS011;9196;49.194;12.526;2023-07-13T12:54:04;1.67;;;1.33;;
18140;SDS011;9196;49.194;12.526;2023-07-13T12:56:37;1.33;;;1.10;;
18140;SDS011;9196;49.194;12.526;2023-07-13T12:59:04;1.90;;;1.57;;
18140;SDS011;9196;49.194;12.526;2023-07-13T13:01:32;1.30;;;1.20;;
18140;SDS011;9196;49.194;12.526;2023-07-13T13:04:02;3.07;;;1.17;;
18140;SDS011;9196;49.194;12.526;2023-07-13T13:06:31;3.30;;;1.67;;
18140;SDS011;9196;49.194;12.526;2023-07-13T13:09:02;1.67;;;1.50;;
18140;SDS011;9196;49.194;12.526;2023-07-13T13:11:30;1.57;;;1.47;;
18140;SDS011;9196;49.194;12.526;2023-07-13T13:13:57;1.80;;;1.50;;
18140;SDS011;9196;49.194;12.526;2023-07-13T13:16:29;4.97;;;1.50;;
18140;SDS011;9196;49.194;12.526;2023-07-13T13:18:59;1.57;;;1.47;;
18140;SDS011;9196;49.194;12.526;2023-07-13T13:21:30;5.23;;;1.70;;
18140;SDS011;9196;49.194;12.526;2023-07-13T13:23:57;3.17;;;1.60;;
18140;SDS011;9196;49.194;12.526;2023-07-13T13:26:25;2.97;;;1.77;;
18140;SDS011;9196;49.194;12.526;2023-07-13T13:28:52;1.20;;;1.10;;
18140;SDS011;9196;49.194;12.526;2023-07-13T13:31:19;2.10;;;1.20;;
18140;SDS011;9196;49.194;12.526;2023-07-13T13:33:46;3.87;;;1.50;;
18140;SDS011;9196;49.194;12.526;2023-07-13T13:36:14;2.83;;;1.57;;
18140;SDS011;9196;49.194;12.526;2023-07-13T13:38:43;3.47;;;1.50;;
18140;SDS011;9196;49.194;12.526;2023-07-13T13:41:10;3.50;;;1.60;;
18140;SDS011;9196;49.194;12.526;2023-07-13T13:43:40;1.40;;;1.30;;
18140;SDS011;9196;49.194;12.526;2023-07-13T13:46:13;1.60;;;1.50;;
18140;SDS011;9196;49.194;12.526;2023-07-13T13:48:43;2.90;;;1.70;;
18140;SDS011;9196;49.194;12.526;2023-07-13T13:51:15;1.47;;;1.37;;
18140;SDS011;9196;49.194;12.526;2023-07-13T13:53:43;1.50;;;1.40;;
18140;SDS011;9196;49.194;12.526;2023-07-13T13:56:10;3.80;;;1.47;;
18140;SDS011;9196;49.194;12.526;2023-07-13T13:58:37;2.57;;;1.40;;
18140;SDS011;9196;49.194;12.526;2023-07-13T14:01:09;1.63;;;1.53;;
18140;SDS011;9196;49.194;12.526;2023-07-13T14:03:39;3.60;;;1.30;;
18140;SDS011;9196;49.194;12.526;2023-07-13T14:06:07;3.23;;;1.87;;
18140;SDS011;9196;49.194;12.526;2023-07-13T14:08:36;2.33;;;1.40;;
18140;SDS011;9196;49.194;12.526;2023-07-13T14:11:03;1.23;;;1.00;;
18140;SDS011;9196;49.194;12.526;2023-07-13T14:13:31;2.80;;;1.33;;
18140;SDS011;9196;49.194;12.526;2023-07-13T14:16:04;1.50;;;1.40;;
18140;SDS011;9196;49.194;12.526;2023-07-13T14:18:35;1.63;;;1.30;;
18140;SDS011;9196;49.194;12.526;2023-07-13T14:21:02;1.60;;;1.50;;
18140;SDS011;9196;49.194;12.526;2023-07-13T14:23:29;3.53;;;1.70;;
18140;SDS011;9196;49.194;12.526;2023-07-13T14:25:55;2.50;;;1.50;;
18140;SDS011;9196;49.194;12.526;2023-07-13T14:28:23;2.07;;;1.23;;
18140;SDS011;9196;49.194;12.526;2023-07-13T14:30:51;2.97;;;1.30;;
18140;SDS011;9196;49.194;12.526;2023-07-13T14:33:20;3.17;;;1.77;;
18140;SDS011;9196;49.194;12.526;2023-07-13T14:35:49;1.60;;;1.50;;
18140;SDS011;9196;49.194;12.526;2023-07-13T14:38:17;1.50;;;1.40;;
18140;SDS011;9196;49.194;12.526;2023-07-13T14:40:45;3.17;;;1.30;;
18140;SDS011;9196;49.194;12.526;2023-07-13T14:43:12;1.50;;;1.37;;
18140;SDS011;9196;49.194;12.526;2023-07-13T14:45:41;2.80;;;1.33;;
18140;SDS011;9196;49.194;12.526;2023-07-13T14:48:13;1.63;;;1.33;;
18140;SDS011;9196;49.194;12.526;2023-07-13T14:50:43;1.93;;;1.33;;
18140;SDS011;9196;49.194;12.526;2023-07-13T14:53:10;1.30;;;1.20;;
18140;SDS011;9196;49.194;12.526;2023-07-13T14:55:37;1.90;;;1.30;;
18140;SDS011;9196;49.194;12.526;2023-07-13T14:58:04;2.30;;;1.20;;
18140;SDS011;9196;49.194;12.526;2023-07-13T15:00:31;4.83;;;1.50;;
18140;SDS011;9196;49.194;12.526;2023-07-13T15:02:58;3.93;;;1.67;;